UKON/NLV METAR and TAF weather

Enter ICAO airport designator
Station Type Date Time Source
UKON METAR 2019/08/26 07:00 UTC NOAA

UKON 260700Z 06002MPS 010V110 CAVOK 27/11 Q1023 NOSIG


Station Type Date Time Source
UKON Decoded METAR 2019/08/26 07:00 UTC NOAA

Station name not available
Aug 26, 2019 - 03:00 AM EDT / 2019.08.26 0700 UTC
Wind: from the ENE (060 degrees) at 4 MPH (4 KT) (direction variable):0
Visibility: greater than 7 mile(s):0
Temperature: 80 F (27 C)
Dew Point: 51 F (11 C)
Relative Humidity: 36%
Pressure (altimeter): 30.21 in. Hg (1023 hPa)
ob: UKON 260700Z 06002MPS 010V110 CAVOK 27/11 Q1023 NOSIG
cycle: 7

Station Type Date Time Source
UKON TAF 2018/11/06 15:06 UTC NOAA

TAF
AMD TAF
AMD UKON 061502Z 0615/0724 CNL

Example: see airport list